Aviation Digital Data Service (ADDS)

Output produced by METARs form (2128 UTC 08 August 2020)
found at http://www.aviationweather.gov/metar/data/
 
METAR text: KILE 082056Z AUTO 17008KT 10SM 37/18 A3005 RMK AO2 SLP158 T03670183 58019 $
Conditions at: KILE (KILLEEN MUNI , TX, US) observed 2056 UTC 08 August 2020
Temperature: 36.7°C (98°F)
Dewpoint: 18.3°C (65°F) [RH = 34%]
Pressure (altimeter): 30.05 inches Hg (1017.7 mb)
[Sea-level pressure: 1015.8 mb]
Winds: from the S (170 degrees) at 9 MPH (8 knots; 4.1 m/s)
Visibility: 10 or more miles (16+ km)
Ceiling: unknown
Clouds: missing
Weather:
SOME DATA ABOVE MAY BE INACCURATE!!!
"$" is an indication the sensor requires maintenance